createdAt,value
2022-10-23T00:01:41.852Z,101102.63
2022-10-23T00:04:14.287Z,101109.03
2022-10-23T00:06:43.167Z,101107.34
2022-10-23T00:09:14.060Z,101104.28
2022-10-23T00:11:44.525Z,101101.22
2022-10-23T00:14:12.752Z,101099.84
2022-10-23T00:16:42.319Z,101097.59
2022-10-23T00:19:10.647Z,101089.75
2022-10-23T00:21:39.378Z,101100.09
2022-10-23T00:26:42.844Z,101087.25
2022-10-23T00:29:11.918Z,101091.47
2022-10-23T00:31:41.494Z,101091.47
2022-10-23T00:34:11.078Z,101090.88
2022-10-23T00:36:40.419Z,101094.22
2022-10-23T00:39:08.592Z,101096.13
2022-10-23T00:41:36.830Z,101092.81
2022-10-23T00:44:10.144Z,101092.25
2022-10-23T00:46:40.827Z,101085.56
2022-10-23T00:51:48.762Z,101083.00
2022-10-23T00:54:24.368Z,101085.81
2022-10-23T00:56:56.162Z,101077.97
2022-10-23T00:59:24.772Z,101074.06
2022-10-23T01:01:54.399Z,101077.41
2022-10-23T01:04:23.921Z,101065.97
2022-10-23T01:07:03.602Z,101065.44
2022-10-23T01:09:38.718Z,101060.66
2022-10-23T01:12:17.288Z,101068.78
2022-10-23T01:14:58.407Z,101065.69
2022-10-23T01:17:39.646Z,101064.84
2022-10-23T01:20:33.449Z,101077.41
2022-10-23T01:23:42.913Z,101079.06
2022-10-23T01:26:36.611Z,101068.53
2022-10-23T01:29:14.952Z,101075.41
2022-10-23T01:31:50.426Z,101061.78
2022-10-23T01:34:31.834Z,101058.66
2022-10-23T01:37:05.637Z,101047.78
2022-10-23T01:39:41.687Z,101061.25
2022-10-23T01:42:15.216Z,101055.25
2022-10-23T01:44:48.610Z,101036.88
2022-10-23T01:49:56.161Z,101031.25
2022-10-23T01:52:24.909Z,101025.44
2022-10-23T01:54:57.556Z,101014.28
2022-10-23T01:57:29.295Z,101012.03
2022-10-23T02:00:03.254Z,101020.22
2022-10-23T02:02:34.179Z,101030.38
2022-10-23T02:05:08.055Z,101021.50
2022-10-23T02:07:36.676Z,101024.03
2022-10-23T02:10:07.437Z,101018.19
2022-10-23T02:12:48.728Z,101017.91
2022-10-23T02:15:28.576Z,101007.03
2022-10-23T02:18:09.644Z,101005.31
2022-10-23T02:20:42.038Z,101005.06
2022-10-23T02:23:20.353Z,101006.19
2022-10-23T02:25:55.709Z,100994.75
2022-10-23T02:28:29.470Z,100995.28
2022-10-23T02:31:01.213Z,100996.41
2022-10-23T02:33:31.340Z,100985.00
2022-10-23T02:35:59.519Z,100985.25
2022-10-23T02:38:32.870Z,100988.59
2022-10-23T02:41:19.175Z,100988.31
2022-10-23T02:44:01.250Z,100979.66
2022-10-23T02:46:43.296Z,100975.75
2022-10-23T02:49:18.681Z,100972.69
2022-10-23T02:52:01.448Z,100972.69
2022-10-23T02:54:45.421Z,100968.78
2022-10-23T02:57:24.555Z,100966.25
2022-10-23T03:00:02.810Z,100970.72
2022-10-23T03:02:38.693Z,100978.53
2022-10-23T03:05:13.139Z,100972.69
2022-10-23T03:07:42.146Z,100971.00
2022-10-23T03:10:12.148Z,100968.47
2022-10-23T03:12:41.272Z,100960.09
2022-10-23T03:15:12.380Z,100957.59
2022-10-23T03:17:42.354Z,100953.69
2022-10-23T03:20:12.303Z,100952.56
2022-10-23T03:22:41.206Z,100946.72
2022-10-23T03:25:10.996Z,100937.25
2022-10-23T03:27:39.477Z,100929.97
2022-10-23T03:30:09.465Z,100931.94
2022-10-23T03:32:37.766Z,100927.75
2022-10-23T03:35:08.519Z,100923.84
2022-10-23T03:37:36.682Z,100914.66
2022-10-23T03:40:06.431Z,100916.88
2022-10-23T03:42:34.591Z,100908.50
2022-10-23T03:45:02.769Z,100902.63
2022-10-23T03:47:32.345Z,100908.50
2022-10-23T03:50:00.554Z,100910.19
2022-10-23T03:52:30.204Z,100906.28
2022-10-23T03:54:58.409Z,100912.13
2022-10-23T03:57:26.775Z,100911.84
2022-10-23T03:59:55.049Z,100918.81
2022-10-23T04:02:23.323Z,100922.44
2022-10-23T04:04:51.568Z,100915.75
2022-10-23T04:07:19.789Z,100909.91
2022-10-23T04:09:49.361Z,100913.81
2022-10-23T04:12:17.841Z,100926.63
2022-10-23T04:14:46.239Z,100915.75
2022-10-23T04:17:14.470Z,100923.84
2022-10-23T04:19:42.714Z,100907.94
2022-10-23T04:22:10.918Z,100905.97
2022-10-23T04:24:39.105Z,100902.94
2022-10-23T04:27:08.625Z,100905.16
2022-10-23T04:29:36.772Z,100897.34
2022-10-23T04:32:05.366Z,100885.34
2022-10-23T04:34:33.600Z,100888.66
2022-10-23T04:37:01.846Z,100892.88
2022-10-23T04:39:29.982Z,100880.31
2022-10-23T04:41:58.150Z,100888.13
2022-10-23T04:44:27.709Z,100882.84
2022-10-23T04:46:55.855Z,100888.16
2022-10-23T04:49:24.160Z,100882.00
2022-10-23T04:51:52.440Z,100870.59
2022-10-23T04:54:20.570Z,100863.88
2022-10-23T04:56:48.746Z,100871.97
2022-10-23T04:59:16.957Z,100874.19
2022-10-23T05:01:46.660Z,100876.72
2022-10-23T05:04:14.974Z,100876.13
2022-10-23T05:06:43.147Z,100861.63
2022-10-23T05:09:11.323Z,100861.91
2022-10-23T05:11:39.505Z,100863.28
2022-10-23T05:14:07.660Z,100857.16
2022-10-23T05:16:43.904Z,100854.06
2022-10-23T05:19:22.011Z,100856.03
2022-10-23T05:21:55.926Z,100850.19
2022-10-23T05:24:24.621Z,100852.09
2022-10-23T05:26:53.883Z,100859.66
2022-10-23T05:29:22.515Z,100852.13
2022-10-23T05:31:56.225Z,100847.41
2022-10-23T05:34:27.923Z,100842.06
2022-10-23T05:36:56.466Z,100838.72
2022-10-23T05:39:25.153Z,100837.63
2022-10-23T05:41:54.982Z,100833.34
2022-10-23T05:44:23.363Z,100825.59
2022-10-23T05:46:51.562Z,100826.09
2022-10-23T05:49:19.754Z,100819.69
2022-10-23T05:51:49.324Z,100820.28
2022-10-23T05:54:17.546Z,100819.47
2022-10-23T05:56:45.813Z,100807.75
2022-10-23T05:59:14.724Z,100811.38
2022-10-23T06:01:45.144Z,100806.94
2022-10-23T06:04:13.400Z,100816.69
2022-10-23T06:06:41.589Z,100816.16
2022-10-23T06:09:11.130Z,100808.34
2022-10-23T06:11:39.341Z,100803.91
2022-10-23T06:14:07.707Z,100808.06
2022-10-23T06:16:35.954Z,100806.94
2022-10-23T06:19:04.434Z,100804.16
2022-10-23T06:21:32.657Z,100800.22
2022-10-23T06:24:00.810Z,100803.88
2022-10-23T06:26:30.326Z,100800.56
2022-10-23T06:28:58.738Z,100802.78
2022-10-23T06:31:28.321Z,100793.03
2022-10-23T06:33:57.457Z,100796.63
2022-10-23T06:36:26.595Z,100801.66
2022-10-23T06:38:56.376Z,100799.72
2022-10-23T06:41:24.683Z,100803.59
2022-10-23T06:43:54.173Z,100801.94
2022-10-23T06:46:22.631Z,100801.41
2022-10-23T06:48:50.893Z,100796.63
2022-10-23T06:51:19.236Z,100792.19
2022-10-23T06:53:47.714Z,100793.03
2022-10-23T06:56:15.915Z,100789.94
2022-10-23T06:58:44.055Z,100777.69
2022-10-23T07:01:16.385Z,100778.81
2022-10-23T07:03:44.990Z,100776.53
2022-10-23T07:06:13.382Z,100769.31
2022-10-23T07:08:41.615Z,100774.91
2022-10-23T07:11:12.642Z,100773.50
2022-10-23T07:13:42.617Z,100774.63
2022-10-23T07:16:15.540Z,100777.41
2022-10-23T07:18:44.166Z,100777.41
2022-10-23T07:21:12.606Z,100772.94
2022-10-23T07:23:41.022Z,100771.25
2022-10-23T07:26:11.191Z,100765.97
2022-10-23T07:28:39.381Z,100760.09
2022-10-23T07:31:07.566Z,100757.91
2022-10-23T07:33:37.357Z,100764.00
2022-10-23T07:36:07.637Z,100756.75
2022-10-23T07:38:36.359Z,100753.94
2022-10-23T07:41:07.793Z,100751.50
2022-10-23T07:43:38.794Z,100754.84
2022-10-23T07:46:08.316Z,100749.50
2022-10-23T07:48:38.452Z,100754.50
2022-10-23T07:51:10.690Z,100756.75
2022-10-23T07:53:40.169Z,100746.63
2022-10-23T07:56:16.606Z,100744.66
2022-10-23T07:58:44.773Z,100739.16
2022-10-23T08:01:20.201Z,100741.63
2022-10-23T08:03:49.809Z,100742.78
2022-10-23T08:06:18.002Z,100744.03
2022-10-23T08:11:26.247Z,100739.19
2022-10-23T08:13:55.737Z,100734.97
2022-10-23T08:16:25.746Z,100737.22
2022-10-23T08:18:55.279Z,100735.25
2022-10-23T08:21:23.468Z,100726.03
2022-10-23T08:23:55.010Z,100734.72
2022-10-23T08:26:24.612Z,100734.69
2022-10-23T08:28:53.314Z,100741.16
2022-10-23T08:31:23.508Z,100733.34
2022-10-23T08:33:51.756Z,100739.19
2022-10-23T08:36:24.297Z,100741.94
2022-10-23T08:38:54.749Z,100736.69
2022-10-23T08:41:29.743Z,100736.66
2022-10-23T08:44:08.168Z,100731.91
2022-10-23T08:46:43.067Z,100738.91
2022-10-23T08:49:28.833Z,100729.41
2022-10-23T08:52:01.509Z,100726.63
2022-10-23T08:54:54.278Z,100721.91
2022-10-23T08:57:25.032Z,100724.97
2022-10-23T08:59:59.047Z,100718.28
2022-10-23T09:02:31.238Z,100715.47
2022-10-23T09:05:00.419Z,100709.34
2022-10-23T09:07:41.195Z,100700.13
2022-10-23T09:10:48.138Z,100697.91
2022-10-23T09:13:48.613Z,100695.09
2022-10-23T09:16:26.960Z,100674.47
2022-10-23T09:18:56.465Z,100680.34
2022-10-23T09:21:28.770Z,100673.63
2022-10-23T09:23:58.510Z,100665.00
2022-10-23T09:26:26.825Z,100667.50
2022-10-23T09:29:08.666Z,100666.69
2022-10-23T09:31:48.447Z,100657.44
2022-10-23T09:34:21.341Z,100658.50
2022-10-23T09:36:53.292Z,100654.06
2022-10-23T09:39:30.577Z,100655.78
2022-10-23T09:41:59.598Z,100659.97
2022-10-23T09:44:29.908Z,100650.19
2022-10-23T09:47:11.221Z,100651.06
2022-10-23T09:49:41.923Z,100644.53
2022-10-23T09:52:26.685Z,100651.25
2022-10-23T09:54:59.430Z,100643.88
2022-10-23T09:57:33.808Z,100649.25
2022-10-23T10:00:06.077Z,100644.84
2022-10-23T10:02:37.629Z,100640.84
2022-10-23T10:05:24.781Z,100639.28
2022-10-23T10:08:01.045Z,100632.84
2022-10-23T10:10:38.705Z,100629.41
2022-10-23T10:13:27.336Z,100628.88
2022-10-23T10:16:00.114Z,100624.75
2022-10-23T10:18:39.136Z,100609.88
2022-10-23T10:21:19.857Z,100616.97
2022-10-23T10:23:58.572Z,100623.78
2022-10-23T10:26:38.079Z,100614.25
2022-10-23T10:29:24.154Z,100613.34
2022-10-23T10:32:06.788Z,100603.84
2022-10-23T10:34:44.223Z,100607.53
2022-10-23T10:37:27.250Z,100601.13
2022-10-23T10:40:05.089Z,100592.53
2022-10-23T10:42:56.104Z,100585.94
2022-10-23T10:45:33.934Z,100572.88
2022-10-23T10:48:30.659Z,100567.22
2022-10-23T10:51:04.806Z,100559.38
2022-10-23T10:53:47.506Z,100549.31
2022-10-23T10:56:19.825Z,100554.50
2022-10-23T10:58:54.533Z,100545.28
2022-10-23T11:01:29.686Z,100538.00
2022-10-23T11:04:06.348Z,100535.47
2022-10-23T11:06:38.789Z,100532.19
2022-10-23T11:09:20.711Z,100529.63
2022-10-23T11:11:50.280Z,100524.59
2022-10-23T11:14:23.717Z,100511.34
2022-10-23T11:16:54.265Z,100511.44
2022-10-23T11:19:28.737Z,100510.38
2022-10-23T11:22:04.317Z,100492.44
2022-10-23T11:25:15.813Z,100495.13
2022-10-23T11:28:19.404Z,100487.56
2022-10-23T11:31:18.296Z,100477.50
2022-10-23T11:34:09.813Z,100479.56
2022-10-23T11:36:47.398Z,100485.59
2022-10-23T11:39:25.808Z,100482.72
2022-10-23T11:41:58.097Z,100469.19
2022-10-23T11:44:40.436Z,100466.63
2022-10-23T11:47:39.243Z,100472.06
2022-10-23T11:50:33.767Z,100481.25
2022-10-23T11:53:15.221Z,100476.56
2022-10-23T11:55:59.972Z,100476.84
2022-10-23T11:58:41.509Z,100451.44
2022-10-23T12:01:40.718Z,100448.91
2022-10-23T12:04:24.470Z,100454.66
2022-10-23T12:06:56.515Z,100448.63
2022-10-23T12:09:32.692Z,100453.72
2022-10-23T12:12:16.677Z,100441.84
2022-10-23T12:14:47.285Z,100450.88
2022-10-23T12:17:36.817Z,100447.16
2022-10-23T12:20:25.098Z,100435.66
2022-10-23T12:23:13.809Z,100434.91
2022-10-23T12:25:56.985Z,100429.19
2022-10-23T12:28:36.880Z,100425.44
2022-10-23T12:31:23.566Z,100424.06
2022-10-23T12:34:02.432Z,100420.50
2022-10-23T12:36:57.214Z,100399.63
2022-10-23T12:39:29.033Z,100394.38
2022-10-23T12:41:58.292Z,100405.50
2022-10-23T12:44:27.357Z,100397.19
2022-10-23T12:46:59.169Z,100394.25
2022-10-23T12:49:31.519Z,100385.88
2022-10-23T12:52:04.117Z,100371.19
2022-10-23T12:54:34.462Z,100370.16
2022-10-23T12:57:02.662Z,100367.06
2022-10-23T12:59:38.980Z,100378.53
2022-10-23T13:02:24.005Z,100370.75
2022-10-23T13:04:54.715Z,100363.50
2022-10-23T13:07:30.015Z,100373.84
2022-10-23T13:09:59.781Z,100368.72
2022-10-23T13:12:31.401Z,100367.44
2022-10-23T13:15:03.520Z,100350.09
2022-10-23T13:17:38.697Z,100347.63
2022-10-23T13:20:20.350Z,100356.38
2022-10-23T13:23:02.960Z,100355.88
2022-10-23T13:25:33.668Z,100342.09
2022-10-23T13:28:23.106Z,100332.47
2022-10-23T13:31:05.179Z,100324.38
2022-10-23T13:33:37.585Z,100328.47
2022-10-23T13:36:22.452Z,100319.53
2022-10-23T13:39:06.077Z,100319.94
2022-10-23T13:41:40.590Z,100313.03
2022-10-23T13:44:12.933Z,100315.31
2022-10-23T13:46:41.887Z,100318.50
2022-10-23T13:49:10.340Z,100313.47
2022-10-23T13:51:43.400Z,100304.63
2022-10-23T13:54:18.219Z,100297.94
2022-10-23T13:56:46.632Z,100295.16
2022-10-23T13:59:15.857Z,100299.50
2022-10-23T14:01:45.597Z,100298.09
2022-10-23T14:04:15.473Z,100299.09
2022-10-23T14:06:43.993Z,100305.00
2022-10-23T14:09:16.629Z,100290.06
2022-10-23T14:11:45.685Z,100298.78
2022-10-23T14:14:13.919Z,100299.22
2022-10-23T14:16:42.320Z,100303.16
2022-10-23T14:19:11.862Z,100294.13
2022-10-23T14:21:40.068Z,100298.78
2022-10-23T14:24:10.209Z,100288.50
2022-10-23T14:26:39.758Z,100287.97
2022-10-23T14:29:10.456Z,100271.03
2022-10-23T14:31:42.165Z,100278.16
2022-10-23T14:34:10.341Z,100275.19
2022-10-23T14:36:49.930Z,100273.59
2022-10-23T14:39:19.479Z,100266.72
2022-10-23T14:41:49.014Z,100265.13
2022-10-23T14:44:17.263Z,100262.41
2022-10-23T14:46:45.433Z,100257.06
2022-10-23T14:49:13.619Z,100253.56
2022-10-23T14:51:41.799Z,100252.75
2022-10-23T14:54:10.140Z,100254.56
2022-10-23T14:56:40.819Z,100247.16
2022-10-23T14:59:11.699Z,100242.00
2022-10-23T15:01:45.129Z,100238.44
2022-10-23T15:04:16.130Z,100253.22
2022-10-23T15:06:46.378Z,100271.50
2022-10-23T15:09:15.043Z,100306.25
2022-10-23T15:11:43.523Z,100294.59
2022-10-23T15:14:13.369Z,100290.34
2022-10-23T15:16:42.220Z,100280.78
2022-10-23T15:19:15.283Z,100280.97
2022-10-23T15:21:46.724Z,100275.09
2022-10-23T15:24:14.982Z,100270.53
2022-10-23T15:26:44.379Z,100267.78
2022-10-23T15:29:15.172Z,100269.59
2022-10-23T15:31:54.426Z,100282.91
2022-10-23T15:34:25.312Z,100287.41
2022-10-23T15:36:55.702Z,100279.94
2022-10-23T15:39:27.716Z,100283.59
2022-10-23T15:41:58.281Z,100295.41
2022-10-23T15:44:30.826Z,100285.94
2022-10-23T15:46:59.810Z,100280.16
2022-10-23T15:49:30.322Z,100286.38
2022-10-23T15:51:58.831Z,100277.28
2022-10-23T15:54:30.456Z,100285.88
2022-10-23T15:57:01.377Z,100290.50
2022-10-23T15:59:32.975Z,100271.56
2022-10-23T16:02:01.269Z,100282.72
2022-10-23T16:04:29.642Z,100283.31
2022-10-23T16:06:57.884Z,100282.72
2022-10-23T16:09:26.044Z,100277.41
2022-10-23T16:11:54.256Z,100277.16
2022-10-23T16:14:22.423Z,100288.38
2022-10-23T16:16:51.961Z,100289.38
2022-10-23T16:19:20.080Z,100282.09
2022-10-23T16:21:48.412Z,100287.63
2022-10-23T16:24:16.846Z,100281.28
2022-10-23T16:26:50.231Z,100279.47
2022-10-23T16:29:18.381Z,100290.53
2022-10-23T16:31:46.597Z,100269.50
2022-10-23T16:34:16.280Z,100275.19
2022-10-23T16:36:45.113Z,100274.88
2022-10-23T16:39:15.703Z,100266.91
2022-10-23T16:41:43.864Z,100277.75
2022-10-23T16:44:12.067Z,100274.88
2022-10-23T16:46:40.470Z,100308.34
2022-10-23T16:49:09.464Z,100319.38
2022-10-23T16:51:38.969Z,100312.38
2022-10-23T16:54:07.320Z,100316.66
2022-10-23T16:56:35.504Z,100301.09
2022-10-23T16:59:03.771Z,100246.84
2022-10-23T17:01:33.301Z,100217.94
2022-10-23T17:04:01.820Z,100199.47
2022-10-23T17:06:33.443Z,100146.06
2022-10-23T17:09:06.379Z,100153.69
2022-10-23T17:11:37.818Z,100167.75
2022-10-23T17:14:09.356Z,100176.09
2022-10-23T17:16:41.348Z,100200.34
2022-10-23T17:19:20.497Z,100211.50
2022-10-23T17:21:49.490Z,100229.34
2022-10-23T17:24:19.592Z,100248.22
2022-10-23T17:26:48.392Z,100241.25
2022-10-23T17:29:18.282Z,100244.06
2022-10-23T17:31:50.245Z,100231.50
2022-10-23T17:34:21.590Z,100232.41
2022-10-23T17:36:52.633Z,100217.41
2022-10-23T17:39:25.180Z,100215.69
2022-10-23T17:41:53.929Z,100219.53
2022-10-23T17:44:23.217Z,100231.81
2022-10-23T17:46:53.856Z,100225.03
2022-10-23T17:49:23.019Z,100229.13
2022-10-23T17:51:53.440Z,100248.94
2022-10-23T17:54:24.047Z,100244.00
2022-10-23T17:56:52.303Z,100241.91
2022-10-23T17:59:20.685Z,100246.34
2022-10-23T18:01:49.555Z,100252.91
2022-10-23T18:04:20.444Z,100254.94
2022-10-23T18:06:51.422Z,100272.09
2022-10-23T18:09:20.585Z,100259.34
2022-10-23T18:11:51.675Z,100254.84
2022-10-23T18:14:21.906Z,100231.41
2022-10-23T18:16:51.053Z,100236.19
2022-10-23T18:19:20.729Z,100228.59
2022-10-23T18:21:49.693Z,100220.50
2022-10-23T18:24:18.803Z,100211.19
2022-10-23T18:26:49.147Z,100207.06
2022-10-23T18:29:18.681Z,100209.03
2022-10-23T18:31:49.077Z,100207.94
2022-10-23T18:34:20.120Z,100205.75
2022-10-23T18:36:50.260Z,100204.34
2022-10-23T18:39:22.541Z,100208.88
2022-10-23T18:41:54.771Z,100197.44
2022-10-23T18:44:24.792Z,100206.50
2022-10-23T18:46:54.311Z,100208.03
2022-10-23T18:49:22.486Z,100206.50
2022-10-23T18:51:51.418Z,100211.31
2022-10-23T18:54:22.098Z,100220.66
2022-10-23T18:56:52.019Z,100220.88
2022-10-23T18:59:21.788Z,100206.50
2022-10-23T19:01:50.871Z,100185.22
2022-10-23T19:04:19.545Z,100193.59
2022-10-23T19:06:51.494Z,100196.16
2022-10-23T19:09:20.349Z,100197.69
2022-10-23T19:11:48.496Z,100186.78
2022-10-23T19:14:18.726Z,100203.03
2022-10-23T19:17:00.833Z,100180.22
2022-10-23T19:19:32.637Z,100171.16
2022-10-23T19:22:02.907Z,100185.31
2022-10-23T19:24:37.586Z,100181.03
2022-10-23T19:27:06.666Z,100176.44
2022-10-23T19:29:39.133Z,100176.16
2022-10-23T19:32:08.024Z,100174.97
2022-10-23T19:34:36.292Z,100190.34
2022-10-23T19:37:04.581Z,100193.19
2022-10-23T19:39:33.009Z,100185.16
2022-10-23T19:42:01.452Z,100182.50
2022-10-23T19:44:29.736Z,100191.22
2022-10-23T19:46:59.305Z,100190.25
2022-10-23T19:49:27.691Z,100191.03
2022-10-23T19:51:55.875Z,100193.19
2022-10-23T19:54:24.024Z,100190.72
2022-10-23T19:56:52.225Z,100200.63
2022-10-23T19:59:20.397Z,100192.38
2022-10-23T20:01:49.417Z,100190.06
2022-10-23T20:04:19.937Z,100174.84
2022-10-23T20:06:48.840Z,100185.38
2022-10-23T20:09:17.529Z,100189.72
2022-10-23T20:11:45.731Z,100190.72
2022-10-23T20:14:14.285Z,100201.09
2022-10-23T20:16:45.543Z,100199.47
2022-10-23T20:21:49.311Z,100212.84
2022-10-23T20:24:20.251Z,100246.72
2022-10-23T20:26:51.756Z,100261.66
2022-10-23T20:29:20.818Z,100276.66
2022-10-23T20:31:49.331Z,100312.56
2022-10-23T20:34:18.974Z,100316.78
2022-10-23T20:36:50.914Z,100318.19
2022-10-23T20:39:24.544Z,100327.94
2022-10-23T20:41:55.160Z,100324.66
2022-10-23T20:44:24.588Z,100317.16
2022-10-23T20:46:53.429Z,100287.66
2022-10-23T20:49:22.056Z,100294.81
2022-10-23T20:51:55.152Z,100284.31
2022-10-23T20:54:24.690Z,100281.25
2022-10-23T20:56:53.022Z,100276.00
2022-10-23T20:59:21.540Z,100275.69
2022-10-23T21:01:52.834Z,100275.13
2022-10-23T21:04:23.850Z,100268.72
2022-10-23T21:07:09.486Z,100281.22
2022-10-23T21:09:39.397Z,100271.72
2022-10-23T21:12:07.919Z,100279.47
2022-10-23T21:14:36.562Z,100279.06
2022-10-23T21:17:06.112Z,100274.41
2022-10-23T21:19:34.320Z,100277.63
2022-10-23T21:22:03.916Z,100279.28
2022-10-23T21:24:32.050Z,100283.34
2022-10-23T21:27:00.211Z,100288.91
2022-10-23T21:29:28.461Z,100291.16
2022-10-23T21:31:59.262Z,100294.41
2022-10-23T21:34:28.450Z,100286.19
2022-10-23T21:37:13.783Z,100301.22
2022-10-23T21:39:45.488Z,100290.16
2022-10-23T21:42:14.997Z,100285.13
2022-10-23T21:44:43.371Z,100291.31
2022-10-23T21:47:11.562Z,100291.28
2022-10-23T21:49:39.857Z,100285.72
2022-10-23T21:52:08.247Z,100277.84
2022-10-23T21:54:36.445Z,100285.38
2022-10-23T21:57:06.014Z,100296.44
2022-10-23T21:59:36.016Z,100289.56
2022-10-23T22:02:05.030Z,100293.81
2022-10-23T22:04:33.666Z,100299.84
2022-10-23T22:07:02.733Z,100295.09
2022-10-23T22:09:31.603Z,100294.19
2022-10-23T22:12:00.849Z,100297.31
2022-10-23T22:14:30.690Z,100283.66
2022-10-23T22:16:59.927Z,100281.78
2022-10-23T22:19:28.226Z,100289.81
2022-10-23T22:21:56.518Z,100279.31
2022-10-23T22:24:25.157Z,100279.00
2022-10-23T22:26:56.866Z,100290.56
2022-10-23T22:29:29.324Z,100289.53
2022-10-23T22:31:59.338Z,100288.47
2022-10-23T22:37:18.726Z,100292.34
2022-10-23T22:39:46.918Z,100294.03
2022-10-23T22:42:15.092Z,100282.66
2022-10-23T22:44:43.282Z,100279.78
2022-10-23T22:47:12.800Z,100287.94
2022-10-23T22:49:40.948Z,100276.59
2022-10-23T22:52:09.096Z,100275.00
2022-10-23T22:54:37.222Z,100263.84
2022-10-23T22:57:05.470Z,100275.53
2022-10-23T22:59:33.664Z,100278.94
2022-10-23T23:02:01.858Z,100266.94
2022-10-23T23:04:39.404Z,100267.81
2022-10-23T23:07:09.811Z,100273.28
2022-10-23T23:09:40.029Z,100273.09
2022-10-23T23:12:10.963Z,100268.00
2022-10-23T23:14:39.689Z,100265.31
2022-10-23T23:17:09.756Z,100268.28
2022-10-23T23:19:39.348Z,100273.03
2022-10-23T23:22:07.784Z,100275.50
2022-10-23T23:24:36.102Z,100260.81
2022-10-23T23:27:04.312Z,100261.13
2022-10-23T23:29:32.469Z,100264.41
2022-10-23T23:32:01.267Z,100259.72
2022-10-23T23:34:29.989Z,100256.44
2022-10-23T23:36:59.705Z,100263.97
2022-10-23T23:39:28.562Z,100264.84
2022-10-23T23:41:56.990Z,100260.66
2022-10-23T23:44:25.144Z,100260.66
2022-10-23T23:46:53.334Z,100260.09
2022-10-23T23:49:21.484Z,100260.66
2022-10-23T23:51:49.694Z,100265.16
2022-10-23T23:54:19.455Z,100254.25
2022-10-23T23:56:47.817Z,100252.47
2022-10-23T23:59:15.952Z,100247.00
